sensor_id;sensor_type;location;lat;lon;timestamp;pressure;altitude;pressure_sealevel;temperature;humidity
33280;BME280;20403;43.114;12.434;2023-02-15T00:01:55;100516.16;;;2.92;100.00
33280;BME280;20403;43.114;12.434;2023-02-15T00:04:23;100515.47;;;3.00;100.00
33280;BME280;20403;43.114;12.434;2023-02-15T00:06:49;100516.28;;;2.91;100.00
33280;BME280;20403;43.114;12.434;2023-02-15T00:09:15;100521.56;;;3.09;100.00
33280;BME280;20403;43.114;12.434;2023-02-15T00:11:41;100523.22;;;3.10;100.00
33280;BME280;20403;43.114;12.434;2023-02-15T00:14:18;100520.09;;;2.97;100.00
33280;BME280;20403;43.114;12.434;2023-02-15T00:16:44;100516.31;;;3.01;100.00
33280;BME280;20403;43.114;12.434;2023-02-15T00:19:11;100516.16;;;2.92;100.00
33280;BME280;20403;43.114;12.434;2023-02-15T00:21:38;100521.84;;;2.86;100.00
33280;BME280;20403;43.114;12.434;2023-02-15T00:24:05;100519.41;;;2.94;100.00
33280;BME280;20403;43.114;12.434;2023-02-15T00:26:32;100519.28;;;2.67;100.00
33280;BME280;20403;43.114;12.434;2023-02-15T00:28:58;100515.91;;;2.66;100.00
33280;BME280;20403;43.114;12.434;2023-02-15T00:31:24;100517.28;;;2.70;100.00
33280;BME280;20403;43.114;12.434;2023-02-15T00:33:50;100513.44;;;2.74;100.00
33280;BME280;20403;43.114;12.434;2023-02-15T00:36:15;100512.78;;;2.72;100.00
33280;BME280;20403;43.114;12.434;2023-02-15T00:38:41;100511.03;;;2.83;100.00
33280;BME280;20403;43.114;12.434;2023-02-15T00:41:08;100513.44;;;2.74;100.00
33280;BME280;20403;43.114;12.434;2023-02-15T00:43:34;100522.94;;;2.55;100.00
33280;BME280;20403;43.114;12.434;2023-02-15T00:46:01;100520.09;;;2.58;100.00
33280;BME280;20403;43.114;12.434;2023-02-15T00:48:27;100515.22;;;2.55;100.00
33280;BME280;20403;43.114;12.434;2023-02-15T06:45:22;100510.81;;;0.82;100.00
33280;BME280;20403;43.114;12.434;2023-02-15T06:47:48;100512.84;;;0.99;100.00
33280;BME280;20403;43.114;12.434;2023-02-15T06:50:13;100510.91;;;1.13;100.00
33280;BME280;20403;43.114;12.434;2023-02-15T06:52:38;100508.47;;;1.11;100.00
33280;BME280;20403;43.114;12.434;2023-02-15T06:55:04;100515.97;;;1.03;100.00
33280;BME280;20403;43.114;12.434;2023-02-15T06:57:30;100511.59;;;1.15;100.00
33280;BME280;20403;43.114;12.434;2023-02-15T06:59:55;100509.28;;;1.33;100.00
33280;BME280;20403;43.114;12.434;2023-02-15T07:02:20;100511.16;;;1.31;100.00
33280;BME280;20403;43.114;12.434;2023-02-15T07:04:46;100508.47;;;1.32;100.00
33280;BME280;20403;43.114;12.434;2023-02-15T07:07:11;100506.84;;;1.62;100.00
33280;BME280;20403;43.114;12.434;2023-02-15T07:09:38;100501.09;;;1.79;100.00
33280;BME280;20403;43.114;12.434;2023-02-15T07:12:04;100501.47;;;2.15;100.00
33280;BME280;20403;43.114;12.434;2023-02-15T07:14:47;100501.22;;;2.38;100.00
33280;BME280;20403;43.114;12.434;2023-02-15T07:17:13;100498.13;;;2.34;100.00
33280;BME280;20403;43.114;12.434;2023-02-15T07:19:38;100490.81;;;2.59;100.00
33280;BME280;20403;43.114;12.434;2023-02-15T07:22:04;100493.66;;;2.94;100.00
33280;BME280;20403;43.114;12.434;2023-02-15T07:24:30;100499.34;;;3.08;100.00
33280;BME280;20403;43.114;12.434;2023-02-15T07:26:55;100503.09;;;3.23;100.00
33280;BME280;20403;43.114;12.434;2023-02-15T07:29:22;100494.34;;;3.44;100.00
33280;BME280;20403;43.114;12.434;2023-02-15T07:31:48;100497.03;;;3.89;100.00
33280;BME280;20403;43.114;12.434;2023-02-15T07:34:13;100499.63;;;4.53;100.00
33280;BME280;20403;43.114;12.434;2023-02-15T07:36:39;100490.97;;;4.98;100.00
33280;BME280;20403;43.114;12.434;2023-02-15T07:39:04;100491.47;;;5.54;100.00
33280;BME280;20403;43.114;12.434;2023-02-15T07:41:29;100497.44;;;5.88;100.00
33280;BME280;20403;43.114;12.434;2023-02-15T07:43:55;100490.22;;;6.00;100.00
33280;BME280;20403;43.114;12.434;2023-02-15T07:46:20;100490.91;;;6.10;100.00
33280;BME280;20403;43.114;12.434;2023-02-15T07:48:47;100487.53;;;6.18;100.00
33280;BME280;20403;43.114;12.434;2023-02-15T07:51:13;100487.03;;;6.15;100.00
33280;BME280;20403;43.114;12.434;2023-02-15T07:53:39;100491.56;;;6.21;100.00
33280;BME280;20403;43.114;12.434;2023-02-15T07:56:15;100489.16;;;6.27;100.00
33280;BME280;20403;43.114;12.434;2023-02-15T07:58:40;100492.72;;;6.35;100.00
33280;BME280;20403;43.114;12.434;2023-02-15T08:01:20;100486.09;;;6.24;100.00
33280;BME280;20403;43.114;12.434;2023-02-15T08:03:46;100483.00;;;6.20;100.00
33280;BME280;20403;43.114;12.434;2023-02-15T08:06:11;100489.34;;;6.34;100.00
33280;BME280;20403;43.114;12.434;2023-02-15T08:08:39;100492.09;;;6.32;100.00
33280;BME280;20403;43.114;12.434;2023-02-15T08:11:25;100492.59;;;6.36;100.00
33280;BME280;20403;43.114;12.434;2023-02-15T08:16:32;100492.28;;;6.56;100.00
33280;BME280;20403;43.114;12.434;2023-02-15T08:19:00;100491.78;;;6.77;100.00
33280;BME280;20403;43.114;12.434;2023-02-15T08:21:28;100488.91;;;6.80;100.00
33280;BME280;20403;43.114;12.434;2023-02-15T08:23:54;100494.88;;;7.05;100.00
33280;BME280;20403;43.114;12.434;2023-02-15T08:26:21;100489.66;;;7.21;100.00
33280;BME280;20403;43.114;12.434;2023-02-15T08:28:47;100493.69;;;7.32;100.00
33280;BME280;20403;43.114;12.434;2023-02-15T08:31:14;100483.75;;;7.44;100.00
33280;BME280;20403;43.114;12.434;2023-02-15T08:33:41;100486.88;;;7.31;100.00
33280;BME280;20403;43.114;12.434;2023-02-15T08:36:10;100488.09;;;7.60;100.00
33280;BME280;20403;43.114;12.434;2023-02-15T08:38:36;100482.09;;;7.67;100.00
33280;BME280;20403;43.114;12.434;2023-02-15T08:41:32;100481.38;;;7.73;100.00
33280;BME280;20403;43.114;12.434;2023-02-15T08:44:00;100482.91;;;7.99;100.00
33280;BME280;20403;43.114;12.434;2023-02-15T08:46:28;100490.91;;;7.89;100.00
33280;BME280;20403;43.114;12.434;2023-02-15T08:48:54;100484.94;;;8.12;100.00
33280;BME280;20403;43.114;12.434;2023-02-15T08:51:23;100484.63;;;8.38;100.00
33280;BME280;20403;43.114;12.434;2023-02-15T08:53:50;100493.56;;;8.44;100.00
33280;BME280;20403;43.114;12.434;2023-02-15T08:56:18;100484.25;;;8.49;100.00
33280;BME280;20403;43.114;12.434;2023-02-15T08:58:44;100483.78;;;8.46;100.00
33280;BME280;20403;43.114;12.434;2023-02-15T09:01:10;100491.75;;;8.67;99.64
33280;BME280;20403;43.114;12.434;2023-02-15T09:03:36;100487.13;;;8.77;95.05
33280;BME280;20403;43.114;12.434;2023-02-15T09:06:02;100490.44;;;8.71;87.33
33280;BME280;20403;43.114;12.434;2023-02-15T09:08:28;100484.06;;;9.12;93.50
33280;BME280;20403;43.114;12.434;2023-02-15T09:10:54;100486.59;;;9.20;94.33
33280;BME280;20403;43.114;12.434;2023-02-15T09:13:20;100487.03;;;9.23;88.17
33280;BME280;20403;43.114;12.434;2023-02-15T09:15:46;100479.78;;;9.49;86.66
33280;BME280;20403;43.114;12.434;2023-02-15T09:18:11;100479.56;;;9.35;89.76
33280;BME280;20403;43.114;12.434;2023-02-15T09:20:42;100481.56;;;9.48;82.82
33280;BME280;20403;43.114;12.434;2023-02-15T09:23:08;100481.59;;;9.99;83.48
33280;BME280;20403;43.114;12.434;2023-02-15T09:25:33;100480.97;;;10.55;76.65
33280;BME280;20403;43.114;12.434;2023-02-15T09:27:59;100479.84;;;11.14;78.00
33280;BME280;20403;43.114;12.434;2023-02-15T09:30:24;100475.41;;;11.49;75.61
33280;BME280;20403;43.114;12.434;2023-02-15T09:32:49;100468.13;;;11.86;73.16
33280;BME280;20403;43.114;12.434;2023-02-15T09:35:15;100465.19;;;11.96;71.25
33280;BME280;20403;43.114;12.434;2023-02-15T09:37:40;100468.41;;;11.56;67.42
33280;BME280;20403;43.114;12.434;2023-02-15T09:40:06;100474.56;;;11.84;70.24
33280;BME280;20403;43.114;12.434;2023-02-15T09:48:19;100469.72;;;12.55;69.06
33280;BME280;20403;43.114;12.434;2023-02-15T09:51:23;100473.91;;;12.50;62.76
33280;BME280;20403;43.114;12.434;2023-02-15T09:56:37;100476.75;;;12.75;65.15
33280;BME280;20403;43.114;12.434;2023-02-15T10:21:42;100469.34;;;13.70;59.03
33280;BME280;20403;43.114;12.434;2023-02-15T10:29:03;100465.88;;;13.76;58.76
33280;BME280;20403;43.114;12.434;2023-02-15T10:31:50;100457.00;;;14.16;61.13
33280;BME280;20403;43.114;12.434;2023-02-15T10:34:38;100453.53;;;13.90;58.26
33280;BME280;20403;43.114;12.434;2023-02-15T10:40:19;100456.75;;;13.92;58.36
33280;BME280;20403;43.114;12.434;2023-02-15T10:51:02;100436.59;;;15.37;56.78
33280;BME280;20403;43.114;12.434;2023-02-15T10:53:57;100434.31;;;15.59;55.96
33280;BME280;20403;43.114;12.434;2023-02-15T10:56:32;100437.41;;;15.19;55.93
33280;BME280;20403;43.114;12.434;2023-02-15T11:01:46;100423.22;;;15.38;56.27
33280;BME280;20403;43.114;12.434;2023-02-15T11:07:03;100411.03;;;15.92;55.07
33280;BME280;20403;43.114;12.434;2023-02-15T11:09:38;100407.31;;;16.24;54.73
33280;BME280;20403;43.114;12.434;2023-02-15T11:12:11;100408.75;;;16.50;54.41
33280;BME280;20403;43.114;12.434;2023-02-15T11:14:49;100408.66;;;16.03;53.24
33280;BME280;20403;43.114;12.434;2023-02-15T11:17:21;100400.41;;;15.99;54.45
33280;BME280;20403;43.114;12.434;2023-02-15T11:20:15;100398.16;;;16.38;53.29
33280;BME280;20403;43.114;12.434;2023-02-15T11:22:47;100394.53;;;16.51;53.96
33280;BME280;20403;43.114;12.434;2023-02-15T11:25:19;100388.00;;;16.42;53.65
33280;BME280;20403;43.114;12.434;2023-02-15T11:27:48;100380.09;;;16.89;53.04
33280;BME280;20403;43.114;12.434;2023-02-15T11:30:22;100372.44;;;16.87;50.83
33280;BME280;20403;43.114;12.434;2023-02-15T11:32:51;100371.31;;;16.36;51.76
33280;BME280;20403;43.114;12.434;2023-02-15T11:35:42;100372.88;;;16.49;51.29
33280;BME280;20403;43.114;12.434;2023-02-15T11:38:17;100360.31;;;16.51;51.72
33280;BME280;20403;43.114;12.434;2023-02-15T11:40:56;100356.31;;;16.48;50.65
33280;BME280;20403;43.114;12.434;2023-02-15T11:43:46;100348.38;;;16.72;51.04
33280;BME280;20403;43.114;12.434;2023-02-15T11:46:15;100343.09;;;16.95;51.49
33280;BME280;20403;43.114;12.434;2023-02-15T11:48:41;100342.38;;;17.00;49.54
33280;BME280;20403;43.114;12.434;2023-02-15T11:51:18;100338.53;;;17.31;50.85
33280;BME280;20403;43.114;12.434;2023-02-15T11:53:46;100334.34;;;17.47;49.37
33280;BME280;20403;43.114;12.434;2023-02-15T11:56:17;100333.47;;;17.58;49.02
33280;BME280;20403;43.114;12.434;2023-02-15T11:59:00;100328.34;;;17.52;48.73
33280;BME280;20403;43.114;12.434;2023-02-15T12:01:45;100325.50;;;17.41;49.03
33280;BME280;20403;43.114;12.434;2023-02-15T12:04:48;100323.28;;;17.33;47.76
33280;BME280;20403;43.114;12.434;2023-02-15T12:12:43;100321.91;;;18.27;46.70
33280;BME280;20403;43.114;12.434;2023-02-15T12:15:10;100311.88;;;18.46;47.09
33280;BME280;20403;43.114;12.434;2023-02-15T12:20:20;100310.78;;;18.25;46.67
33280;BME280;20403;43.114;12.434;2023-02-15T12:22:59;100313.72;;;18.45;46.28
33280;BME280;20403;43.114;12.434;2023-02-15T12:25:51;100296.59;;;18.48;47.11
33280;BME280;20403;43.114;12.434;2023-02-15T12:28:40;100301.75;;;18.38;46.00
33280;BME280;20403;43.114;12.434;2023-02-15T12:31:22;100295.59;;;18.15;46.07
33280;BME280;20403;43.114;12.434;2023-02-15T12:33:53;100298.72;;;18.29;47.18
33280;BME280;20403;43.114;12.434;2023-02-15T12:36:32;100286.47;;;18.62;47.16
33280;BME280;20403;43.114;12.434;2023-02-15T12:42:03;100283.38;;;18.48;45.98
33280;BME280;20403;43.114;12.434;2023-02-15T12:44:35;100276.81;;;18.73;46.22
33280;BME280;20403;43.114;12.434;2023-02-15T12:47:17;100265.50;;;18.99;45.79
33280;BME280;20403;43.114;12.434;2023-02-15T12:49:45;100261.44;;;19.14;45.22
33280;BME280;20403;43.114;12.434;2023-02-15T12:52:28;100262.19;;;19.09;44.55
33280;BME280;20403;43.114;12.434;2023-02-15T12:54:54;100255.69;;;18.73;45.50
33280;BME280;20403;43.114;12.434;2023-02-15T12:57:29;100252.88;;;18.79;46.34
33280;BME280;20403;43.114;12.434;2023-02-15T12:59:59;100250.53;;;18.83;45.41
33280;BME280;20403;43.114;12.434;2023-02-15T13:04:53;100248.22;;;19.14;44.73
33280;BME280;20403;43.114;12.434;2023-02-15T13:07:20;100253.84;;;19.22;47.01
33280;BME280;20403;43.114;12.434;2023-02-15T13:09:45;100243.28;;;19.55;45.49
33280;BME280;20403;43.114;12.434;2023-02-15T13:14:44;100248.41;;;19.34;45.90
33280;BME280;20403;43.114;12.434;2023-02-15T13:17:11;100236.03;;;19.40;44.77
33280;BME280;20403;43.114;12.434;2023-02-15T13:22:13;100236.16;;;19.23;44.71
33280;BME280;20403;43.114;12.434;2023-02-15T13:24:41;100229.59;;;19.30;44.63
33280;BME280;20403;43.114;12.434;2023-02-15T13:27:13;100229.53;;;19.20;44.32
33280;BME280;20403;43.114;12.434;2023-02-15T13:29:43;100228.84;;;19.08;44.52
33280;BME280;20403;43.114;12.434;2023-02-15T13:32:21;100232.03;;;19.10;44.61
33280;BME280;20403;43.114;12.434;2023-02-15T13:34:47;100228.66;;;19.15;45.14
33280;BME280;20403;43.114;12.434;2023-02-15T13:37:32;100231.25;;;19.09;44.11
33280;BME280;20403;43.114;12.434;2023-02-15T13:40:08;100227.34;;;18.90;44.15
33280;BME280;20403;43.114;12.434;2023-02-15T13:42:50;100225.53;;;18.91;44.42
33280;BME280;20403;43.114;12.434;2023-02-15T14:02:14;100217.09;;;18.50;46.11
33280;BME280;20403;43.114;12.434;2023-02-15T14:04:58;100222.38;;;18.27;45.58
33280;BME280;20403;43.114;12.434;2023-02-15T14:07:52;100219.78;;;18.11;45.31
33280;BME280;20403;43.114;12.434;2023-02-15T14:15:47;100215.19;;;18.23;45.71
33280;BME280;20403;43.114;12.434;2023-02-15T14:18:33;100209.00;;;18.12;45.39
33280;BME280;20403;43.114;12.434;2023-02-15T14:21:13;100217.88;;;18.06;45.76
33280;BME280;20403;43.114;12.434;2023-02-15T14:23:48;100214.22;;;18.07;45.61
33280;BME280;20403;43.114;12.434;2023-02-15T14:29:07;100211.66;;;17.95;46.18
33280;BME280;20403;43.114;12.434;2023-02-15T14:31:42;100214.59;;;17.99;47.76
33280;BME280;20403;43.114;12.434;2023-02-15T14:34:22;100213.66;;;17.88;46.03
33280;BME280;20403;43.114;12.434;2023-02-15T14:36:50;100214.38;;;17.83;46.70
33280;BME280;20403;43.114;12.434;2023-02-15T14:42:26;100221.41;;;17.44;52.24
33280;BME280;20403;43.114;12.434;2023-02-15T14:45:20;100219.59;;;16.99;55.05
33280;BME280;20403;43.114;12.434;2023-02-15T14:48:05;100210.13;;;16.74;55.78
33280;BME280;20403;43.114;12.434;2023-02-15T14:50:43;100211.94;;;16.57;57.92
33280;BME280;20403;43.114;12.434;2023-02-15T14:55:39;100209.72;;;16.13;63.42
33280;BME280;20403;43.114;12.434;2023-02-15T14:58:10;100207.22;;;15.95;65.84
33280;BME280;20403;43.114;12.434;2023-02-15T15:00:38;100206.41;;;15.71;67.86
33280;BME280;20403;43.114;12.434;2023-02-15T15:03:31;100204.84;;;15.40;69.99
33280;BME280;20403;43.114;12.434;2023-02-15T15:05:59;100207.53;;;15.09;74.27
33280;BME280;20403;43.114;12.434;2023-02-15T15:08:36;100205.75;;;14.91;78.69
33280;BME280;20403;43.114;12.434;2023-02-15T15:13:58;100205.63;;;14.13;89.35
33280;BME280;20403;43.114;12.434;2023-02-15T15:18:55;100205.81;;;13.68;100.00
33280;BME280;20403;43.114;12.434;2023-02-15T15:21:54;100201.50;;;13.55;100.00
33280;BME280;20403;43.114;12.434;2023-02-15T15:46:05;100210.50;;;12.57;100.00
33280;BME280;20403;43.114;12.434;2023-02-15T15:48:36;100209.50;;;12.45;100.00
33280;BME280;20403;43.114;12.434;2023-02-15T15:53:38;100214.41;;;12.21;100.00
33280;BME280;20403;43.114;12.434;2023-02-15T15:56:11;100217.63;;;12.16;100.00
33280;BME280;20403;43.114;12.434;2023-02-15T15:58:42;100223.28;;;12.00;100.00
33280;BME280;20403;43.114;12.434;2023-02-15T16:01:09;100216.63;;;11.84;100.00
33280;BME280;20403;43.114;12.434;2023-02-15T16:03:36;100220.88;;;11.72;100.00
33280;BME280;20403;43.114;12.434;2023-02-15T16:06:02;100220.44;;;11.55;100.00
33280;BME280;20403;43.114;12.434;2023-02-15T16:08:38;100222.84;;;11.50;100.00
33280;BME280;20403;43.114;12.434;2023-02-15T16:11:14;100222.81;;;11.36;100.00
33280;BME280;20403;43.114;12.434;2023-02-15T16:13:42;100226.22;;;11.17;100.00
33280;BME280;20403;43.114;12.434;2023-02-15T16:16:08;100223.56;;;11.04;100.00
33280;BME280;20403;43.114;12.434;2023-02-15T16:18:36;100222.72;;;10.90;100.00
33280;BME280;20403;43.114;12.434;2023-02-15T16:21:04;100221.88;;;10.76;100.00
33280;BME280;20403;43.114;12.434;2023-02-15T16:28:26;100231.81;;;10.24;100.00
33280;BME280;20403;43.114;12.434;2023-02-15T16:31:05;100235.34;;;10.10;100.00
33280;BME280;20403;43.114;12.434;2023-02-15T16:33:38;100243.16;;;10.10;100.00
33280;BME280;20403;43.114;12.434;2023-02-15T16:36:05;100237.03;;;9.96;100.00
33280;BME280;20403;43.114;12.434;2023-02-15T16:41:07;100236.25;;;9.74;100.00
33280;BME280;20403;43.114;12.434;2023-02-15T16:43:33;100236.28;;;9.53;100.00
33280;BME280;20403;43.114;12.434;2023-02-15T16:46:10;100246.31;;;9.56;100.00
33280;BME280;20403;43.114;12.434;2023-02-15T16:48:43;100253.00;;;9.43;100.00
33280;BME280;20403;43.114;12.434;2023-02-15T16:51:09;100251.38;;;9.42;100.00
33280;BME280;20403;43.114;12.434;2023-02-15T16:53:37;100247.66;;;9.30;100.00
33280;BME280;20403;43.114;12.434;2023-02-15T16:56:04;100254.84;;;9.28;100.00
33280;BME280;20403;43.114;12.434;2023-02-15T16:58:51;100255.44;;;9.09;100.00
33280;BME280;20403;43.114;12.434;2023-02-15T17:01:20;100256.53;;;8.99;100.00
33280;BME280;20403;43.114;12.434;2023-02-15T17:03:48;100266.59;;;8.88;100.00
33280;BME280;20403;43.114;12.434;2023-02-15T17:06:23;100257.84;;;8.74;100.00
33280;BME280;20403;43.114;12.434;2023-02-15T17:08:48;100258.53;;;8.68;100.00
33280;BME280;20403;43.114;12.434;2023-02-15T17:11:15;100260.31;;;8.82;100.00
33280;BME280;20403;43.114;12.434;2023-02-15T17:16:44;100274.31;;;8.66;100.00
33280;BME280;20403;43.114;12.434;2023-02-15T17:19:17;100280.16;;;8.68;100.00
33280;BME280;20403;43.114;12.434;2023-02-15T17:22:04;100274.59;;;8.56;100.00
33280;BME280;20403;43.114;12.434;2023-02-15T17:24:41;100276.56;;;8.54;100.00
33280;BME280;20403;43.114;12.434;2023-02-15T17:27:28;100273.88;;;8.48;100.00
33280;BME280;20403;43.114;12.434;2023-02-15T17:30:02;100280.88;;;8.47;100.00
33280;BME280;20403;43.114;12.434;2023-02-15T17:32:30;100280.19;;;8.30;100.00
33280;BME280;20403;43.114;12.434;2023-02-15T17:42:45;100286.75;;;8.03;100.00
33280;BME280;20403;43.114;12.434;2023-02-15T17:45:10;100292.31;;;8.00;100.00
33280;BME280;20403;43.114;12.434;2023-02-15T17:47:36;100294.28;;;7.98;100.00
33280;BME280;20403;43.114;12.434;2023-02-15T17:50:03;100299.72;;;7.88;100.00
33280;BME280;20403;43.114;12.434;2023-02-15T17:52:30;100302.88;;;7.98;100.00
33280;BME280;20403;43.114;12.434;2023-02-15T17:54:56;100303.69;;;7.99;100.00
33280;BME280;20403;43.114;12.434;2023-02-15T17:57:39;100304.19;;;7.94;100.00
33280;BME280;20403;43.114;12.434;2023-02-15T18:00:07;100302.44;;;7.72;100.00
33280;BME280;20403;43.114;12.434;2023-02-15T18:02:52;100311.47;;;7.76;100.00
33280;BME280;20403;43.114;12.434;2023-02-15T18:05:36;100312.31;;;7.76;100.00
33280;BME280;20403;43.114;12.434;2023-02-15T18:08:25;100316.38;;;7.71;100.00
33280;BME280;20403;43.114;12.434;2023-02-15T18:11:10;100315.63;;;7.62;100.00
33280;BME280;20403;43.114;12.434;2023-02-15T18:13:54;100316.66;;;7.53;100.00
33280;BME280;20403;43.114;12.434;2023-02-15T18:16:24;100319.88;;;7.55;100.00
33280;BME280;20403;43.114;12.434;2023-02-15T18:18:54;100325.19;;;7.62;100.00
33280;BME280;20403;43.114;12.434;2023-02-15T18:21:20;100318.91;;;7.56;100.00
33280;BME280;20403;43.114;12.434;2023-02-15T18:23:45;100324.94;;;7.48;100.00
33280;BME280;20403;43.114;12.434;2023-02-15T18:26:16;100332.78;;;7.40;100.00
33280;BME280;20403;43.114;12.434;2023-02-15T18:28:43;100332.16;;;7.38;100.00
33280;BME280;20403;43.114;12.434;2023-02-15T18:31:09;100332.31;;;7.36;100.00
33280;BME280;20403;43.114;12.434;2023-02-15T18:33:39;100330.72;;;7.35;100.00
33280;BME280;20403;43.114;12.434;2023-02-15T18:36:07;100331.94;;;7.17;100.00
33280;BME280;20403;43.114;12.434;2023-02-15T18:38:37;100334.81;;;7.22;100.00
33280;BME280;20403;43.114;12.434;2023-02-15T18:41:03;100342.91;;;7.27;100.00
33280;BME280;20403;43.114;12.434;2023-02-15T18:43:30;100339.84;;;7.23;100.00
33280;BME280;20403;43.114;12.434;2023-02-15T18:45:55;100347.66;;;7.07;100.00
33280;BME280;20403;43.114;12.434;2023-02-15T18:48:20;100343.63;;;7.04;100.00
33280;BME280;20403;43.114;12.434;2023-02-15T18:50:46;100349.31;;;7.08;100.00
33280;BME280;20403;43.114;12.434;2023-02-15T18:53:17;100346.72;;;7.00;100.00
33280;BME280;20403;43.114;12.434;2023-02-15T18:55:44;100352.91;;;6.99;100.00
33280;BME280;20403;43.114;12.434;2023-02-15T18:58:18;100362.63;;;6.97;100.00
33280;BME280;20403;43.114;12.434;2023-02-15T19:00:44;100367.47;;;7.00;100.00
33280;BME280;20403;43.114;12.434;2023-02-15T19:03:13;100365.75;;;6.76;100.00
33280;BME280;20403;43.114;12.434;2023-02-15T19:05:41;100365.28;;;6.72;100.00
33280;BME280;20403;43.114;12.434;2023-02-15T19:08:16;100364.78;;;6.85;100.00
33280;BME280;20403;43.114;12.434;2023-02-15T19:10:42;100370.59;;;6.79;100.00
33280;BME280;20403;43.114;12.434;2023-02-15T19:13:09;100371.44;;;6.71;100.00
33280;BME280;20403;43.114;12.434;2023-02-15T19:15:35;100370.78;;;6.61;100.00
33280;BME280;20403;43.114;12.434;2023-02-15T19:18:00;100387.66;;;6.57;100.00
33280;BME280;20403;43.114;12.434;2023-02-15T19:20:40;100382.97;;;6.44;100.00
33280;BME280;20403;43.114;12.434;2023-02-15T19:23:13;100397.38;;;6.55;100.00
33280;BME280;20403;43.114;12.434;2023-02-15T19:25:41;100395.09;;;6.51;100.00
33280;BME280;20403;43.114;12.434;2023-02-15T19:28:16;100391.72;;;6.59;100.00
33280;BME280;20403;43.114;12.434;2023-02-15T19:30:42;100402.53;;;6.63;100.00
33280;BME280;20403;43.114;12.434;2023-02-15T19:33:14;100403.06;;;6.50;100.00
33280;BME280;20403;43.114;12.434;2023-02-15T19:35:42;100407.75;;;6.38;100.00
33280;BME280;20403;43.114;12.434;2023-02-15T19:38:14;100409.84;;;6.43;100.00
33280;BME280;20403;43.114;12.434;2023-02-15T19:40:41;100410.63;;;6.35;100.00
33280;BME280;20403;43.114;12.434;2023-02-15T19:43:18;100408.22;;;6.17;100.00
33280;BME280;20403;43.114;12.434;2023-02-15T19:45:44;100402.88;;;6.10;100.00
33280;BME280;20403;43.114;12.434;2023-02-15T19:48:13;100417.75;;;6.08;100.00
33280;BME280;20403;43.114;12.434;2023-02-15T19:50:39;100419.63;;;5.90;100.00
33280;BME280;20403;43.114;12.434;2023-02-15T19:53:05;100418.88;;;6.14;100.00
33280;BME280;20403;43.114;12.434;2023-02-15T19:55:32;100411.75;;;6.00;100.00
33280;BME280;20403;43.114;12.434;2023-02-15T19:58:00;100413.53;;;5.99;100.00
33280;BME280;20403;43.114;12.434;2023-02-15T20:00:28;100417.41;;;5.95;100.00
33280;BME280;20403;43.114;12.434;2023-02-15T20:02:54;100417.91;;;5.99;100.00
33280;BME280;20403;43.114;12.434;2023-02-15T20:05:21;100413.38;;;6.01;100.00
33280;BME280;20403;43.114;12.434;2023-02-15T20:07:48;100415.53;;;5.79;100.00
33280;BME280;20403;43.114;12.434;2023-02-15T20:10:20;100411.69;;;5.83;100.00
33280;BME280;20403;43.114;12.434;2023-02-15T20:12:46;100417.19;;;5.88;100.00
33280;BME280;20403;43.114;12.434;2023-02-15T20:15:23;100414.28;;;5.83;100.00
33280;BME280;20403;43.114;12.434;2023-02-15T20:17:51;100414.66;;;5.97;100.00
33280;BME280;20403;43.114;12.434;2023-02-15T20:20:17;100418.97;;;5.88;100.00
33280;BME280;20403;43.114;12.434;2023-02-15T20:22:46;100417.69;;;5.92;100.00
33280;BME280;20403;43.114;12.434;2023-02-15T20:25:16;100419.47;;;5.92;100.00
33280;BME280;20403;43.114;12.434;2023-02-15T20:27:43;100423.97;;;5.81;100.00
33280;BME280;20403;43.114;12.434;2023-02-15T20:30:16;100422.03;;;5.83;100.00
33280;BME280;20403;43.114;12.434;2023-02-15T20:32:42;100423.31;;;5.71;100.00
33280;BME280;20403;43.114;12.434;2023-02-15T20:35:18;100429.13;;;5.73;100.00
33280;BME280;20403;43.114;12.434;2023-02-15T20:37:47;100436.38;;;5.69;100.00
33280;BME280;20403;43.114;12.434;2023-02-15T20:40:16;100437.97;;;5.62;100.00
33280;BME280;20403;43.114;12.434;2023-02-15T20:42:42;100431.28;;;5.52;100.00
33280;BME280;20403;43.114;12.434;2023-02-15T20:45:19;100433.38;;;5.82;100.00
33280;BME280;20403;43.114;12.434;2023-02-15T20:47:45;100437.53;;;5.75;100.00
33280;BME280;20403;43.114;12.434;2023-02-15T20:50:24;100438.66;;;5.73;100.00
33280;BME280;20403;43.114;12.434;2023-02-15T20:52:52;100449.19;;;5.71;100.00
33280;BME280;20403;43.114;12.434;2023-02-15T20:55:23;100444.47;;;5.75;100.00
33280;BME280;20403;43.114;12.434;2023-02-15T20:57:49;100436.38;;;5.69;100.00
33280;BME280;20403;43.114;12.434;2023-02-15T21:00:23;100436.19;;;5.55;100.00
33280;BME280;20403;43.114;12.434;2023-02-15T21:02:58;100440.50;;;5.46;100.00
33280;BME280;20403;43.114;12.434;2023-02-15T21:05:29;100439.84;;;5.44;100.00
33280;BME280;20403;43.114;12.434;2023-02-15T21:07:55;100440.25;;;5.65;100.00
33280;BME280;20403;43.114;12.434;2023-02-15T21:10:23;100446.41;;;5.64;100.00
33280;BME280;20403;43.114;12.434;2023-02-15T21:12:51;100443.94;;;5.55;100.00
33280;BME280;20403;43.114;12.434;2023-02-15T21:15:33;100444.88;;;5.45;100.00
33280;BME280;20403;43.114;12.434;2023-02-15T21:18:03;100446.81;;;5.52;100.00
33280;BME280;20403;43.114;12.434;2023-02-15T21:20:31;100442.81;;;5.57;100.00
33280;BME280;20403;43.114;12.434;2023-02-15T21:22:59;100448.13;;;5.56;100.00
33280;BME280;20403;43.114;12.434;2023-02-15T21:25:34;100452.44;;;5.39;100.00
33280;BME280;20403;43.114;12.434;2023-02-15T21:28:00;100451.13;;;5.43;100.00